x

Capel Curig Saws (03305) Weather Station

12:00 - Tue 31st Mar 2015 All times are BST. 1 hours from GMT.

  • Wind
    39mph, 66mph gusts
  • Ar Temp 43°f
  • Sea Pressure 1009mb
  • Capel Curig Saws
  • Capel Curig Saws

More Historic Weather Station data

Upgrade to MSW Pro to gain access to the past 30 days of data for over 8000 Wavebouys and Weather Stations around the globe.

Join Pro

Comparision Forecast

View Surf forecast
   
Ter 03/31 12:00 39 66 mph 1009mb 43f
11:00 38 56 mph 1009mb 43f
10:00 33 52 mph 1008mb 42f
9:00 28 51 mph 1007mb 42f
8:00 25 45 mph 1005mb 42f
7:00 21 54 mph 1003mb 43f
6:00 30 57 mph 1000mb 44f
4:00 49 69 mph 996mb 46f
3:00 51 81 mph 995mb 46f
2:00 48 86 mph 994mb 47f
1:00 48 97 mph 993mb 48f
12:00 60 93 mph 992mb 52f
Seg 03/30 11:00 46 66 mph 992mb 50f
10:00 37 61 mph 993mb 50f
9:00 31 51 mph 995mb 50f
8:00 31 43 mph 997mb 48f
7:00 29 36 mph 999mb 47f
6:00 22 39 mph 1001mb 44f
5:00 25 39 mph 1003mb 43f
4:00 31 45 mph 1004mb 42f
3:00 29 45 mph 1007mb 41f
2:00 34 45 mph 1007mb 41f
1:00 30 37 mph 1008mb 43f
12:00 22 33 mph 1009mb 43f
11:00 18 31 mph 1010mb 42f
10:00 17 29 mph 1009mb 41f
8:00 16 32 mph 1009mb 39f
7:00 15 30 mph 1008mb 39f
6:00 13 36 mph 1007mb 39f
5:00 21 41 mph 1006mb 39f
4:00 22 51 mph 1005mb 40f
3:00 34 51 mph 1003mb 41f
2:00 28 43 mph 1003mb 41f
1:00 22 38 mph 1002mb 41f
12:00 28 45 mph 1002mb 41f
Dom 03/29 11:00 29 47 mph 1001mb 41f
10:00 26 48 mph 999mb 43f
9:00 29 41 mph 999mb 44f
8:00 26 43 mph 998mb 44f
7:00 28 44 mph 997mb 44f
6:00 28 48 mph 997mb 44f
5:00 34 52 mph 995mb 45f
4:00 34 49 mph 995mb 46f
3:00 39 54 mph 995mb 45f
2:00 33 57 mph 994mb 43f
1:00 32 62 mph 993mb 45f
12:00 43 67 mph 990mb 49f
11:00 46 78 mph 988mb 51f
10:00 30 43 mph 990mb 48f
9:00 21
mph
993mb 43f
8:00 13 33 mph 995mb 42f
7:00 24 38 mph 997mb 43f
6:00 31 45 mph 998mb 44f
5:00 32 44 mph 999mb 45f
4:00 26 44 mph 1000mb 45f
3:00 31 47 mph 1000mb 46f
2:00 31 45 mph 1002mb 46f
1:00 28
mph
1002mb 46f
12:00 29 57 mph 1001mb 47f
Sáb 03/28 11:00 39 54 mph 1001mb 47f
10:00 30 43 mph 1001mb 47f
9:00 29 38 mph 1002mb 47f
8:00 29 45 mph 1003mb 48f
7:00 21 36 mph 1003mb 49f
6:00 21 40 mph 1002mb 50f
5:00 28 41 mph 1002mb 48f
4:00 28 46 mph 1003mb 48f
3:00 34 45 mph 1003mb 47f
2:00 37 51 mph 1003mb 48f
1:00 43 52 mph 1003mb 48f
12:00 37 49 mph 1004mb 48f
11:00 34 55 mph 1005mb 48f
10:00 34 48 mph 1005mb 48f
8:00 47 61 mph 1005mb 48f
7:00 36 51 mph 1006mb 48f
6:00 32 43 mph 1008mb 48f
5:00 28 41 mph 1009mb 47f
4:00 22 34 mph 1011mb 46f
3:00 22 31 mph 1012mb 46f
2:00 9
mph
1014mb 44f
1:00 11
mph
1015mb 43f
12:00 2
mph
1016mb 43f
Sex 03/27 11:00 2
mph
1017mb 43f
10:00 1
mph
1017mb 44f
9:00 6
mph
1018mb 44f
8:00 8
mph
1018mb 44f
7:00 11
mph
1018mb 45f
6:00 11
mph
1018mb 46f
5:00 14
mph
1018mb 47f
4:00 16
mph
1018mb 46f
3:00 18
mph
1019mb 46f
2:00 15
mph
1019mb 46f